x

Buoy F01 - West Penobscot Bay (44033) Wave Buoy

10:04 - Thu 25th May 2017 All times are EDT. -4 hours from GMT.

  • Sig Wave height 2.0ft
  • Peak Period 8s
  • Wind
    9mph, 9mph gusts
  • Sea Temp 46°f
  • Air Temp 49°f
  • Sea Pressure 1014mb
  • Buoy F01 - West Penobscot Bay
  • Buoy F01 - West Penobscot Bay

More Historic Weather Station data

Upgrade to MSW Pro to gain access to the past 30 days of data for over 8000 Wavebouys and Weather Stations around the globe.

Join Pro

Comparision Forecast

View Surf forecast
   
jeu. 05/25 10:04 2ft 8s 9 9 mph 1014mb 46f 49f
9:04 2.5ft 8s 7 9 mph 1014.1mb 47f 50f
8:04 2.5ft 8s  -  mph - 49f -
7:04 2ft 8s  -  mph - 47f -
6:04 2ft 8s  -  mph - 47f -
3:04 1.6ft 8s 4 4 mph 1012.2mb 53f 50f
2:04 1.6ft 6s 2 4 mph 1012.4mb 52f 50f
1:04 1.6ft 8s 2 2 mph 1012.2mb 53f 49f
mer. 05/24 11:04 2.5ft 6s 2 4 mph 1011.4mb 48f 48f
10:04 2ft 6s 4 7 mph 1011.3mb 47f 47f
9:04 2.5ft 8s 7 7 mph 1010.7mb 47f 48f
8:04 2.5ft 8s 4 7 mph 1009.5mb 47f 48f
7:04 2ft 6s 7 7 mph 1010.5mb 51f 51f
6:04 2ft 6s 7 9 mph 1010.2mb 51f 51f
5:04 2ft 6s 9 9 mph 1008.7mb 50f 51f
4:04 2ft 6s 11 13 mph 1008.9mb 51f 51f
3:04 1.6ft 6s 13 16 mph 1008.8mb 51f 53f
2:04 1.6ft 5s 2 2 mph 1008.9mb 52f 59f
1:04 1.6ft 6s 4 4 mph 1008.9mb 51f 56f
11:04 1.3ft 6s 4 7 mph 1008.9mb 47f 50f
10:04 1ft 6s 4 4 mph 1008.8mb 46f 49f
9:04 1ft 5s 4 4 mph 1008.9mb 46f 49f
8:04 1ft 6s 4 4 mph 1009.2mb 46f 49f
7:04 1ft 5s  -  2 mph 1008.9mb 46f 48f
6:04 1.3ft 5s 2 4 mph 1008.6mb 47f 48f
5:04 1.3ft 5s 4 7 mph 1008.2mb 48f 48f
4:04 1.6ft 5s 4 7 mph 1008.3mb 48f 51f